sensor_id;sensor_type;location;lat;lon;timestamp;pressure;altitude;pressure_sealevel;temperature;humidity
39309;BME280;26019;47.510;19.122;2023-11-19T00:03:59;100838.53;;;1.74;100.00
39309;BME280;26019;47.510;19.122;2023-11-19T00:14:01;100816.91;;;1.64;100.00
39309;BME280;26019;47.510;19.122;2023-11-19T00:24:03;100809.84;;;1.57;100.00
39309;BME280;26019;47.510;19.122;2023-11-19T00:34:05;100828.94;;;1.46;100.00
39309;BME280;26019;47.510;19.122;2023-11-19T00:44:07;100835.06;;;1.51;100.00
39309;BME280;26019;47.510;19.122;2023-11-19T00:54:10;100820.16;;;1.60;100.00
39309;BME280;26019;47.510;19.122;2023-11-19T01:04:12;100814.28;;;1.63;100.00
39309;BME280;26019;47.510;19.122;2023-11-19T01:14:15;100823.16;;;1.50;100.00
39309;BME280;26019;47.510;19.122;2023-11-19T01:24:17;100816.41;;;1.29;100.00
39309;BME280;26019;47.510;19.122;2023-11-19T01:34:19;100801.13;;;1.29;100.00
39309;BME280;26019;47.510;19.122;2023-11-19T01:44:21;100803.44;;;1.23;100.00
39309;BME280;26019;47.510;19.122;2023-11-19T01:54:30;100787.66;;;1.11;100.00
39309;BME280;26019;47.510;19.122;2023-11-19T02:04:35;100761.69;;;1.19;100.00
39309;BME280;26019;47.510;19.122;2023-11-19T02:14:37;100771.31;;;1.06;100.00
39309;BME280;26019;47.510;19.122;2023-11-19T02:24:39;100773.19;;;1.10;100.00
39309;BME280;26019;47.510;19.122;2023-11-19T02:34:43;100753.38;;;1.02;100.00
39309;BME280;26019;47.510;19.122;2023-11-19T02:44:45;100749.59;;;0.93;100.00
39309;BME280;26019;47.510;19.122;2023-11-19T02:54:47;100728.25;;;0.89;100.00
39309;BME280;26019;47.510;19.122;2023-11-19T03:04:49;100721.13;;;0.80;100.00
39309;BME280;26019;47.510;19.122;2023-11-19T03:14:50;100725.41;;;0.81;100.00
39309;BME280;26019;47.510;19.122;2023-11-19T03:24:52;100702.72;;;0.87;100.00
39309;BME280;26019;47.510;19.122;2023-11-19T03:34:54;100708.97;;;0.73;100.00
39309;BME280;26019;47.510;19.122;2023-11-19T03:44:57;100677.34;;;0.89;100.00
39309;BME280;26019;47.510;19.122;2023-11-19T03:54:59;100652.16;;;0.95;100.00
39309;BME280;26019;47.510;19.122;2023-11-19T04:05:02;100641.50;;;1.06;100.00
39309;BME280;26019;47.510;19.122;2023-11-19T04:15:05;100622.41;;;0.94;100.00
39309;BME280;26019;47.510;19.122;2023-11-19T04:25:08;100632.44;;;0.68;100.00
39309;BME280;26019;47.510;19.122;2023-11-19T04:35:10;100613.50;;;0.83;100.00
39309;BME280;26019;47.510;19.122;2023-11-19T04:45:13;100634.00;;;0.65;100.00
39309;BME280;26019;47.510;19.122;2023-11-19T04:55:16;100651.38;;;0.54;100.00
39309;BME280;26019;47.510;19.122;2023-11-19T05:05:19;100659.31;;;0.62;100.00
39309;BME280;26019;47.510;19.122;2023-11-19T05:15:22;100647.06;;;0.95;100.00
39309;BME280;26019;47.510;19.122;2023-11-19T05:25:23;100648.56;;;0.90;100.00
39309;BME280;26019;47.510;19.122;2023-11-19T05:35:26;100636.19;;;0.99;100.00
39309;BME280;26019;47.510;19.122;2023-11-19T05:45:28;100636.88;;;1.18;100.00
39309;BME280;26019;47.510;19.122;2023-11-19T05:55:33;100641.72;;;1.12;100.00
39309;BME280;26019;47.510;19.122;2023-11-19T06:05:36;100630.84;;;1.16;100.00
39309;BME280;26019;47.510;19.122;2023-11-19T06:15:38;100627.84;;;1.03;100.00
39309;BME280;26019;47.510;19.122;2023-11-19T06:25:40;100609.28;;;1.06;100.00
39309;BME280;26019;47.510;19.122;2023-11-19T06:35:42;100598.91;;;1.24;100.00
39309;BME280;26019;47.510;19.122;2023-11-19T06:45:43;100589.03;;;1.33;100.00
39309;BME280;26019;47.510;19.122;2023-11-19T06:55:45;100584.13;;;1.62;100.00
39309;BME280;26019;47.510;19.122;2023-11-19T07:05:48;100583.84;;;2.05;100.00
39309;BME280;26019;47.510;19.122;2023-11-19T07:15:50;100582.78;;;1.98;100.00
39309;BME280;26019;47.510;19.122;2023-11-19T07:25:52;100605.84;;;2.03;100.00
39309;BME280;26019;47.510;19.122;2023-11-19T07:35:55;100587.47;;;2.39;100.00
39309;BME280;26019;47.510;19.122;2023-11-19T07:45:57;100612.38;;;2.46;100.00
39309;BME280;26019;47.510;19.122;2023-11-19T07:56:01;100607.50;;;2.54;100.00
39309;BME280;26019;47.510;19.122;2023-11-19T08:06:03;100565.09;;;2.58;100.00
39309;BME280;26019;47.510;19.122;2023-11-19T08:16:07;100536.22;;;2.59;100.00
39309;BME280;26019;47.510;19.122;2023-11-19T08:26:09;100494.50;;;2.29;100.00
39309;BME280;26019;47.510;19.122;2023-11-19T08:36:18;100519.16;;;2.87;100.00
39309;BME280;26019;47.510;19.122;2023-11-19T08:46:21;100504.38;;;2.76;100.00
39309;BME280;26019;47.510;19.122;2023-11-19T08:56:22;100533.56;;;2.84;100.00
39309;BME280;26019;47.510;19.122;2023-11-19T09:06:24;100526.44;;;3.35;100.00
39309;BME280;26019;47.510;19.122;2023-11-19T09:16:26;100531.66;;;2.77;100.00
39309;BME280;26019;47.510;19.122;2023-11-19T09:26:28;100532.19;;;2.96;100.00
39309;BME280;26019;47.510;19.122;2023-11-19T09:36:30;100534.06;;;2.73;100.00
39309;BME280;26019;47.510;19.122;2023-11-19T09:46:32;100509.28;;;2.68;100.00
39309;BME280;26019;47.510;19.122;2023-11-19T09:56:40;100493.66;;;3.19;100.00
39309;BME280;26019;47.510;19.122;2023-11-19T10:06:42;100476.47;;;2.81;100.00
39309;BME280;26019;47.510;19.122;2023-11-19T10:16:45;100431.97;;;3.37;100.00
39309;BME280;26019;47.510;19.122;2023-11-19T10:26:49;100436.94;;;3.66;100.00
39309;BME280;26019;47.510;19.122;2023-11-19T10:36:53;100438.91;;;3.78;100.00
39309;BME280;26019;47.510;19.122;2023-11-19T10:46:54;100436.66;;;3.92;100.00
39309;BME280;26019;47.510;19.122;2023-11-19T10:56:59;100420.63;;;3.97;100.00
39309;BME280;26019;47.510;19.122;2023-11-19T11:07:03;100399.97;;;3.89;100.00
39309;BME280;26019;47.510;19.122;2023-11-19T11:17:06;100376.94;;;4.28;100.00
39309;BME280;26019;47.510;19.122;2023-11-19T11:37:37;100375.28;;;4.31;100.00
39309;BME280;26019;47.510;19.122;2023-11-19T11:58:01;100329.84;;;4.62;100.00
39309;BME280;26019;47.510;19.122;2023-11-19T12:08:11;100308.72;;;4.74;100.00
39309;BME280;26019;47.510;19.122;2023-11-19T12:18:18;100293.47;;;5.99;100.00
39309;BME280;26019;47.510;19.122;2023-11-19T12:28:38;100265.28;;;5.36;100.00
39309;BME280;26019;47.510;19.122;2023-11-19T12:39:32;100246.72;;;4.92;100.00
39309;BME280;26019;47.510;19.122;2023-11-19T13:00:37;100213.44;;;4.42;100.00
39309;BME280;26019;47.510;19.122;2023-11-19T13:11:13;100210.38;;;4.61;100.00
39309;BME280;26019;47.510;19.122;2023-11-19T13:21:15;100219.50;;;4.48;100.00
39309;BME280;26019;47.510;19.122;2023-11-19T13:31:17;100202.13;;;4.81;100.00
39309;BME280;26019;47.510;19.122;2023-11-19T13:41:20;100206.97;;;4.62;100.00
39309;BME280;26019;47.510;19.122;2023-11-19T13:51:21;100195.00;;;4.61;100.00
39309;BME280;26019;47.510;19.122;2023-11-19T14:01:25;100177.81;;;4.54;100.00
39309;BME280;26019;47.510;19.122;2023-11-19T14:11:27;100181.50;;;4.72;100.00
39309;BME280;26019;47.510;19.122;2023-11-19T14:21:29;100190.16;;;4.78;100.00
39309;BME280;26019;47.510;19.122;2023-11-19T14:31:32;100183.00;;;4.57;100.00
39309;BME280;26019;47.510;19.122;2023-11-19T14:41:35;100186.22;;;4.45;100.00
39309;BME280;26019;47.510;19.122;2023-11-19T14:51:37;100181.00;;;4.39;100.00
39309;BME280;26019;47.510;19.122;2023-11-19T15:01:39;100194.72;;;4.44;100.00
39309;BME280;26019;47.510;19.122;2023-11-19T15:11:45;100183.66;;;4.47;100.00
39309;BME280;26019;47.510;19.122;2023-11-19T15:21:47;100189.50;;;4.40;100.00
39309;BME280;26019;47.510;19.122;2023-11-19T15:31:51;100203.72;;;4.24;100.00
39309;BME280;26019;47.510;19.122;2023-11-19T15:41:55;100181.78;;;4.35;100.00
39309;BME280;26019;47.510;19.122;2023-11-19T15:51:58;100167.25;;;4.36;100.00
39309;BME280;26019;47.510;19.122;2023-11-19T16:02:01;100157.00;;;4.34;100.00
39309;BME280;26019;47.510;19.122;2023-11-19T16:12:04;100143.44;;;4.40;100.00
39309;BME280;26019;47.510;19.122;2023-11-19T16:22:06;100164.69;;;4.36;100.00
39309;BME280;26019;47.510;19.122;2023-11-19T16:32:15;100149.50;;;4.43;100.00
39309;BME280;26019;47.510;19.122;2023-11-19T16:42:17;100126.44;;;4.42;100.00
39309;BME280;26019;47.510;19.122;2023-11-19T16:52:22;100128.97;;;4.40;100.00
39309;BME280;26019;47.510;19.122;2023-11-19T17:02:24;100143.72;;;4.55;100.00
39309;BME280;26019;47.510;19.122;2023-11-19T17:12:26;100148.84;;;4.55;100.00
39309;BME280;26019;47.510;19.122;2023-11-19T17:22:30;100135.31;;;4.62;100.00
39309;BME280;26019;47.510;19.122;2023-11-19T17:32:34;100128.41;;;4.60;100.00
39309;BME280;26019;47.510;19.122;2023-11-19T17:42:36;100115.78;;;4.71;100.00
39309;BME280;26019;47.510;19.122;2023-11-19T17:52:38;100071.72;;;4.33;100.00
39309;BME280;26019;47.510;19.122;2023-11-19T18:02:42;100070.09;;;4.39;100.00
39309;BME280;26019;47.510;19.122;2023-11-19T18:12:47;100051.19;;;4.29;100.00
39309;BME280;26019;47.510;19.122;2023-11-19T18:22:49;100061.94;;;4.64;100.00
39309;BME280;26019;47.510;19.122;2023-11-19T18:32:54;100081.66;;;4.70;100.00
39309;BME280;26019;47.510;19.122;2023-11-19T18:42:58;100058.47;;;4.59;100.00
39309;BME280;26019;47.510;19.122;2023-11-19T18:53:01;100080.03;;;4.77;100.00
39309;BME280;26019;47.510;19.122;2023-11-19T19:03:13;100076.63;;;4.78;100.00
39309;BME280;26019;47.510;19.122;2023-11-19T19:13:26;100048.47;;;4.78;100.00
39309;BME280;26019;47.510;19.122;2023-11-19T19:23:44;100000.25;;;4.46;100.00
39309;BME280;26019;47.510;19.122;2023-11-19T19:34:03;99979.50;;;4.24;100.00
39309;BME280;26019;47.510;19.122;2023-11-19T19:44:26;100001.78;;;4.34;100.00
39309;BME280;26019;47.510;19.122;2023-11-19T19:54:44;99981.31;;;4.34;100.00
39309;BME280;26019;47.510;19.122;2023-11-19T20:04:48;99984.72;;;4.33;100.00
39309;BME280;26019;47.510;19.122;2023-11-19T20:14:58;100000.25;;;4.46;100.00
39309;BME280;26019;47.510;19.122;2023-11-19T20:25:09;100006.22;;;4.45;100.00
39309;BME280;26019;47.510;19.122;2023-11-19T20:35:23;100038.13;;;4.72;100.00
39309;BME280;26019;47.510;19.122;2023-11-19T20:46:11;100031.41;;;4.78;100.00
39309;BME280;26019;47.510;19.122;2023-11-19T20:56:56;100035.56;;;4.70;100.00
39309;BME280;26019;47.510;19.122;2023-11-19T21:07:18;100033.56;;;4.51;100.00
39309;BME280;26019;47.510;19.122;2023-11-19T21:17:22;100033.03;;;4.72;100.00
39309;BME280;26019;47.510;19.122;2023-11-19T21:27:24;100032.22;;;4.76;100.00
39309;BME280;26019;47.510;19.122;2023-11-19T21:37:28;100010.94;;;4.80;100.00
39309;BME280;26019;47.510;19.122;2023-11-19T21:47:30;100011.78;;;4.79;100.00
39309;BME280;26019;47.510;19.122;2023-11-19T21:57:34;99999.56;;;4.58;100.00
39309;BME280;26019;47.510;19.122;2023-11-19T22:07:36;100010.06;;;4.76;100.00
39309;BME280;26019;47.510;19.122;2023-11-19T22:17:38;100011.75;;;4.74;100.00
39309;BME280;26019;47.510;19.122;2023-11-19T22:27:42;100011.94;;;4.93;100.00
39309;BME280;26019;47.510;19.122;2023-11-19T22:37:48;99920.31;;;4.66;100.00
39309;BME280;26019;47.510;19.122;2023-11-19T22:47:50;99966.31;;;4.59;100.00
39309;BME280;26019;47.510;19.122;2023-11-19T22:57:52;99989.97;;;4.43;100.00
39309;BME280;26019;47.510;19.122;2023-11-19T23:07:56;99967.59;;;4.26;100.00
39309;BME280;26019;47.510;19.122;2023-11-19T23:17:59;99990.03;;;4.46;100.00
39309;BME280;26019;47.510;19.122;2023-11-19T23:28:02;100002.16;;;4.61;100.00
39309;BME280;26019;47.510;19.122;2023-11-19T23:38:03;99979.91;;;4.55;100.00
39309;BME280;26019;47.510;19.122;2023-11-19T23:48:05;99962.75;;;4.48;100.00
39309;BME280;26019;47.510;19.122;2023-11-19T23:58:07;99954.72;;;4.22;100.00
